WetterOnline ( https://www.wetteronline.ch )

Wetter aktuell Großer Arber

Aktuelles Wetter: Großer Arber (1446m)

6-stündlich | Neueste Meldungen
Ortszeit Temperatur Wetter
Mi, 03.03. 7:00 3.2° C wolkig
Mi, 03.03. 1:00 5.5° C wolkenlos
Di, 02.03. 19:00 6.6° C wolkenlos
Di, 02.03. 13:00 8.5° C wolkenlos
Di, 02.03. 7:00 3.7° C wolkenlos
Di, 02.03. 1:00 3.1° C wolkenlos
Mo, 01.03. 19:00 0.9° C wolkenlos
Mo, 01.03. 13:00 5.4° C wolkenlos
Ortszeit Temperatur Wetter
Mi, 03.03. 11:30 5.1° C bewölkt
Mi, 03.03. 11:20 5.1° C bewölkt
Mi, 03.03. 11:10 5.5° C wolkig
Mi, 03.03. 11:00 5.3° C leicht bewölkt
Mi, 03.03. 10:50 5.3° C wolkig
Mi, 03.03. 10:40 4.8° C wolkig
Mi, 03.03. 10:30 5.0° C wolkig
Mi, 03.03. 10:00 5.3° C leicht bewölkt
Mi, 03.03. 9:30 5.7° C wolkig
Mi, 03.03. 9:00 5.2° C wolkig
Ortszeit Relative Feuchte Sichtweite
Mi, 03.03. 7:00 23% >70 km
Mi, 03.03. 1:00 15% >70 km
Di, 02.03. 19:00 40% >70 km
Di, 02.03. 13:00 20% >70 km
Di, 02.03. 7:00 17% >70 km
Di, 02.03. 1:00 27% >70 km
Mo, 01.03. 19:00 70% 55 km
Mo, 01.03. 13:00 47% >70 km
Ortszeit Relative Feuchte Sichtweite
Mi, 03.03. 11:30 42% 40 km
Mi, 03.03. 11:20 42% -
Mi, 03.03. 11:10 38% -
Mi, 03.03. 11:00 35% 50 km
Mi, 03.03. 10:50 35% -
Mi, 03.03. 10:40 35% -
Mi, 03.03. 10:30 39% 40 km
Mi, 03.03. 10:00 36% >70 km
Mi, 03.03. 9:30 31% >70 km
Mi, 03.03. 9:00 32% 65 km
Ortszeit Niederschlagsmenge Niederschlagsart
Mi, 03.03. 7:00 0.0 l/m2 in 12 Std. -
Mi, 03.03. 1:00 0.0 l/m2 in 6 Std. -
Di, 02.03. 19:00 0.0 l/m2 in 12 Std. -
Di, 02.03. 13:00 0.0 l/m2 in 6 Std. -
Di, 02.03. 7:00 0.0 l/m2 in 12 Std. -
Di, 02.03. 1:00 0.0 l/m2 in 6 Std. -
Mo, 01.03. 19:00 0.0 l/m2 in 12 Std. -
Mo, 01.03. 13:00 0.0 l/m2 in 6 Std. -
Ortszeit Niederschlagsmenge Niederschlagsart
Mi, 03.03. 11:30 0.0 l/m2 in 1 Std. -
Mi, 03.03. 11:20 keine Meldung -
Mi, 03.03. 11:10 keine Meldung -
Mi, 03.03. 11:00 0.0 l/m2 in 1 Std. -
Mi, 03.03. 10:50 keine Meldung -
Mi, 03.03. 10:40 keine Meldung -
Mi, 03.03. 10:30 0.0 l/m2 in 1 Std. -
Mi, 03.03. 10:00 0.0 l/m2 in 1 Std. -
Mi, 03.03. 9:30 0.0 l/m2 in 1 Std. -
Mi, 03.03. 9:00 0.0 l/m2 in 1 Std. -
Ortszeit Stärke Spitze Richtung
km/h Bft. km/h Grad Sektor
Mi, 03.03. 7:00 11 2 22 260° W
Mi, 03.03. 1:00 9 2 24 180° S
Di, 02.03. 19:00 18 3 25 140° SO
Di, 02.03. 13:00 15 3 31 140° SO
Di, 02.03. 7:00 26 4 41 130° SO
Di, 02.03. 1:00 22 4 36 120° SO
Mo, 01.03. 19:00 26 4 37 100° O
Mo, 01.03. 13:00 9 2 37 70° O
Ortszeit Stärke Spitze Richtung
km/h Bft. km/h Grad Sektor
Mi, 03.03. 11:30 18 3 29 280° W
Mi, 03.03. 11:20 18 3 - 280° W
Mi, 03.03. 11:10 15 3 - 280° W
Mi, 03.03. 11:00 17 3 30 280° W
Mi, 03.03. 10:50 17 3 - 280° W
Mi, 03.03. 10:40 22 4 - 280° W
Mi, 03.03. 10:30 19 3 26 280° W
Mi, 03.03. 10:00 20 4 31 280° W
Mi, 03.03. 9:30 22 4 32 280° W
Mi, 03.03. 9:00 22 4 32 290° W
Ortszeit Untergrenze Bedeckung Gattung
total tief tief mittel hoch
Mi, 03.03. 7:00 8700 m 7/8 0/8 - - -
Mi, 03.03. 1:00 - 0/8 0/8 - - -
Di, 02.03. 19:00 - 0/8 0/8 - - -
Di, 02.03. 13:00 - 0/8 0/8 - - -
Di, 02.03. 7:00 - 0/8 0/8 - - -
Di, 02.03. 1:00 - 0/8 0/8 - - -
Mo, 01.03. 19:00 - 0/8 0/8 - - -
Mo, 01.03. 13:00 - 0/8 0/8 - - -
Ortszeit Bedeckungsgrad in Achtel und Wolkenuntergrenze
Mi, 03.03. 11:30 5(6900m) 8(7500m)
Mi, 03.03. 11:20 5(6900m) 8(7500m)
Mi, 03.03. 11:10 8(7500m)
Mi, 03.03. 11:00 8(7500m)
Mi, 03.03. 10:50 8(7500m)
Mi, 03.03. 10:40 6(7200m) 8(7800m) 8(9000m)
Mi, 03.03. 10:30 7(7200m) 8(8100m) 8(9000m)
Mi, 03.03. 10:00 7(7200m) 8(7800m)
Mi, 03.03. 9:30 1(7200m) 8(7800m) 8(8700m)
Mi, 03.03. 9:00 8(6900m) 8(8100m) 8(8700m)
Ortszeit Stationsdruck (hPa) Tendenz (hPa in 3 Std.)
Mi, 03.03. 7:00 865 - 0,2
Mi, 03.03. 1:00 866 - 0,5
Di, 02.03. 19:00 867 - 0,1
Di, 02.03. 13:00 867 + 0,3
Di, 02.03. 7:00 866 + 0,3
Di, 02.03. 1:00 866 - 0,1
Mo, 01.03. 19:00 866 0,0
Mo, 01.03. 13:00 867 + 0,4
Ortszeit Stationsdruck (hPa) Tendenz (hPa in 3 Std.)
Mi, 03.03. 11:30 865 + 0,2
Mi, 03.03. 11:20 865 keine Meldung
Mi, 03.03. 11:10 865 keine Meldung
Mi, 03.03. 11:00 865 + 0,2
Mi, 03.03. 10:50 865 keine Meldung
Mi, 03.03. 10:40 865 keine Meldung
Mi, 03.03. 10:30 865 + 0,1
Mi, 03.03. 10:00 865 0,0
Mi, 03.03. 9:30 865 0,0
Mi, 03.03. 9:00 865 - 0,2
Ortszeit Schneehöhe (cm)
Mi, 03.03. 7:00 128
Mi, 03.03. 1:00 128
Di, 02.03. 19:00 128
Di, 02.03. 13:00 129
Di, 02.03. 7:00 129
Di, 02.03. 1:00 130
Mo, 01.03. 19:00 130
Mo, 01.03. 13:00 131
Ortszeit Schneehöhe (cm)
Mi, 03.03. 11:30 128
Mi, 03.03. 11:20 128
Mi, 03.03. 11:10 128
Mi, 03.03. 11:00 128
Mi, 03.03. 10:50 128
Mi, 03.03. 10:40 128
Mi, 03.03. 10:30 128
Mi, 03.03. 10:00 128
Mi, 03.03. 9:30 128
Mi, 03.03. 9:00 128
Link zu dieser Seite / Seite empfehlen

Das Wetter in ...